Celia — V2DD5 — position and weather

sailwx.info

Track history (hours):
 
Tides and Currents Weather Stations Pressure Air Temp Water Temp Dewpoint Dewpoint Depression Visibility Wind Speed Wind Dir Waves Ship Positions

Celia

Last reported at 2017-Oct-16 18:59 UTC. Time now 2017-Oct-17 13:16 UTC.
Position N 34°15' W 076°25'.

Length 101 m; draft 4.3 m.

Type: Cargo ship. MMSI: 305176000.

Date/timePositionNaut miles runAvg speedWind from/ knotsBaromVisibWave heightAir tempDewpointWater temp
2017-Oct-16 18:59N 34°15' W 076°25'4210.9
2017-Oct-16 15:09N 34°45' W 075°49'210.9
2017-Oct-16 14:56N 34°46' W 075°47'1710.5
2017-Oct-16 13:16N 34°58' W 075°32'75 8.7
2017-Oct-16 04:41N 36°13' W 075°27'1110.0
2017-Oct-16 03:34N 36°24' W 075°32'2610.0
2017-Oct-16 00:56N 36°48' W 075°46'510.6
2017-Oct-16 00:28N 36°51' W 075°51'510.5
2017-Oct-16 00:00N 36°54' W 075°55'5 9.8
2017-Oct-15 23:30N 36°57' W 076°00'5 9.7
2017-Oct-15 23:00N 36°58' W 076°06'10 9.7
2017-Oct-15 21:55N 36°59' W 076°19'410.0
2017-Oct-15 21:30N 36°55' W 076°20'4 7.9
2017-Oct-15 21:00N 36°51' W 076°19'2 4.5
2017-Oct-15 20:31N 36°49' W 076°17'2 3.6
2017-Oct-15 20:00N 36°48' W 076°18'1 1.9
2017-Oct-15 19:30N 36°47' W 076°18'0 0.0
2017-Oct-15 15:46N 36°47' W 076°18'0 0.0
2017-Oct-15 15:28N 36°47' W 076°18'0 0.0
2017-Oct-15 14:58N 36°47' W 076°18'0 0.0
2017-Oct-15 13:58N 36°47' W 076°18'0 0.0
2017-Oct-15 06:37N 36°47' W 076°18'0 0.0
2017-Oct-15 06:28N 36°47' W 076°18'0 0.0
2017-Oct-15 05:58N 36°47' W 076°18'0 0.0
2017-Oct-15 05:28N 36°47' W 076°18'0 0.0
2017-Oct-15 04:58N 36°47' W 076°18'0 0.0
2017-Oct-15 04:28N 36°47' W 076°18'0 0.0
2017-Oct-15 03:58N 36°47' W 076°18'0 0.0
2017-Oct-15 03:25N 36°47' W 076°18'0 0.0
2017-Oct-15 02:58N 36°47' W 076°18'0 0.0
2017-Oct-15 02:28N 36°47' W 076°18'0 0.0
2017-Oct-15 01:58N 36°47' W 076°18'0 0.0
2017-Oct-15 01:28N 36°47' W 076°18'0 0.0
2017-Oct-15 00:58N 36°47' W 076°18'0 0.0
2017-Oct-15 00:28N 36°47' W 076°18'0 0.0
2017-Oct-14 23:58N 36°47' W 076°18'0 0.0
2017-Oct-14 21:34N 36°47' W 076°18'0 0.0
2017-Oct-14 21:28N 36°47' W 076°18'0 0.0
2017-Oct-14 20:58N 36°47' W 076°18'0 0.0
2017-Oct-14 20:28N 36°47' W 076°18'0 0.0
2017-Oct-14 19:58N 36°47' W 076°18'0 0.0
2017-Oct-14 19:28N 36°47' W 076°18'0 0.0
2017-Oct-14 18:58N 36°47' W 076°18'0 0.0
2017-Oct-14 18:25N 36°47' W 076°18'0 0.0
2017-Oct-14 17:58N 36°47' W 076°18'0 0.0
2017-Oct-14 17:28N 36°47' W 076°18'0 0.0
2017-Oct-14 16:58N 36°47' W 076°18'0 0.0
2017-Oct-14 16:28N 36°47' W 076°18'0 0.0
2017-Oct-14 15:58N 36°47' W 076°18'0 0.0
2017-Oct-14 15:28N 36°47' W 076°18'0 0.0
2017-Oct-14 14:58N 36°47' W 076°18'0 0.0
2017-Oct-14 14:28N 36°47' W 076°18'0 0.0
2017-Oct-14 13:58N 36°47' W 076°18'0 0.0
2017-Oct-14 13:28N 36°47' W 076°18'0 0.0
2017-Oct-14 12:58N 36°47' W 076°18'0 0.0
2017-Oct-14 12:28N 36°47' W 076°18'0 0.0
2017-Oct-14 11:58N 36°47' W 076°18'0 0.0
2017-Oct-14 11:28N 36°47' W 076°18'0 0.0
2017-Oct-14 10:58N 36°47' W 076°18'0 0.0
2017-Oct-14 10:28N 36°47' W 076°18'0 0.0
2017-Oct-14 09:58N 36°47' W 076°18'0 0.0
2017-Oct-14 09:28N 36°47' W 076°18'0 0.0
2017-Oct-14 08:58N 36°47' W 076°18'0 0.0
2017-Oct-14 08:25N 36°47' W 076°18'0 0.0
2017-Oct-14 07:58N 36°47' W 076°18'0 0.0
2017-Oct-14 07:28N 36°47' W 076°18'0 0.0
2017-Oct-14 06:58N 36°47' W 076°18'0 0.0
2017-Oct-14 06:28N 36°47' W 076°18'0 0.0
2017-Oct-14 05:58N 36°47' W 076°18'0 0.0
2017-Oct-14 05:28N 36°47' W 076°18'0 0.0
2017-Oct-14 04:58N 36°47' W 076°18'0 0.0
2017-Oct-14 04:28N 36°47' W 076°18'0 0.0
2017-Oct-14 03:55N 36°47' W 076°18'0 0.0
2017-Oct-14 03:28N 36°47' W 076°18'0 0.0
2017-Oct-14 02:58N 36°47' W 076°18'0 0.0
2017-Oct-14 02:28N 36°47' W 076°18'0 0.0
2017-Oct-14 01:58N 36°47' W 076°18'0 0.0
2017-Oct-14 00:07N 36°47' W 076°18'0 0.0
2017-Oct-13 23:43N 36°47' W 076°18'0 0.0
2017-Oct-13 23:19N 36°47' W 076°18'0 0.0
2017-Oct-13 22:58N 36°47' W 076°18'0 0.0
2017-Oct-13 22:28N 36°47' W 076°18'0 0.0
2017-Oct-13 21:58N 36°47' W 076°18'0 0.0
2017-Oct-13 21:28N 36°47' W 076°18'0 0.0
2017-Oct-13 20:58N 36°47' W 076°18'0 0.0
2017-Oct-13 20:28N 36°47' W 076°18'0 0.0
2017-Oct-13 19:58N 36°47' W 076°18'0 0.0
2017-Oct-13 19:28N 36°47' W 076°18'0 0.0
2017-Oct-13 18:58N 36°47' W 076°18'0 0.0
2017-Oct-13 18:28N 36°47' W 076°18'0 0.0
2017-Oct-13 17:58N 36°47' W 076°18'0 0.0
2017-Oct-13 17:28N 36°47' W 076°18'0 0.0
2017-Oct-13 16:58N 36°47' W 076°18'0 0.0
2017-Oct-13 16:28N 36°47' W 076°18'0 0.0
2017-Oct-13 15:58N 36°47' W 076°18'0 0.0
2017-Oct-13 15:28N 36°47' W 076°18'0 0.0
2017-Oct-13 14:58N 36°47' W 076°18'0 0.0
2017-Oct-13 14:28N 36°47' W 076°18'0 0.0
2017-Oct-13 13:58N 36°47' W 076°18'0 0.0
2017-Oct-13 13:28N 36°47' W 076°18'0 0.0
2017-Oct-13 12:58N 36°47' W 076°18'0 0.0
2017-Oct-13 12:28N 36°47' W 076°18'0 0.0
2017-Oct-13 11:58N 36°47' W 076°18'0 0.0
2017-Oct-13 11:28N 36°47' W 076°18'0 0.0
2017-Oct-13 10:58N 36°47' W 076°18'0 0.0
2017-Oct-13 10:28N 36°47' W 076°18'0 0.0
2017-Oct-13 09:58N 36°47' W 076°18'0 0.0
2017-Oct-13 09:28N 36°47' W 076°18'0 0.0
2017-Oct-13 08:58N 36°47' W 076°18'0 0.0
2017-Oct-13 08:28N 36°47' W 076°18'0 0.0
2017-Oct-13 07:58N 36°47' W 076°18'0 0.0
2017-Oct-13 07:28N 36°47' W 076°18'0 0.0
2017-Oct-13 06:58N 36°47' W 076°18'0 0.0
2017-Oct-13 06:28N 36°47' W 076°18'0 0.0
2017-Oct-13 05:58N 36°47' W 076°18'0 0.0
2017-Oct-13 05:28N 36°47' W 076°18'0 0.0
2017-Oct-13 04:58N 36°47' W 076°18'0 0.0
2017-Oct-13 04:28N 36°47' W 076°18'0 0.0
2017-Oct-13 03:58N 36°47' W 076°18'0 0.0
2017-Oct-13 03:28N 36°47' W 076°18'0 0.0
2017-Oct-13 02:58N 36°47' W 076°18'0 0.0
2017-Oct-13 02:28N 36°47' W 076°18'0 0.0
2017-Oct-13 01:58N 36°47' W 076°18'0 0.0
2017-Oct-13 01:28N 36°47' W 076°18'0 0.0
2017-Oct-13 00:58N 36°47' W 076°18'0 0.0
2017-Oct-13 00:28N 36°47' W 076°18'0 0.0
2017-Oct-12 23:58N 36°47' W 076°18'0 0.0
2017-Oct-12 23:28N 36°47' W 076°18'0 0.0
2017-Oct-12 22:58N 36°47' W 076°18'0 0.0
2017-Oct-12 22:28N 36°47' W 076°18'0 0.0
2017-Oct-12 21:58N 36°47' W 076°18'0 0.0
2017-Oct-12 21:28N 36°47' W 076°18'0 0.0
2017-Oct-12 20:58N 36°47' W 076°18'0 0.0
2017-Oct-12 20:28N 36°47' W 076°18'0 0.0
2017-Oct-12 19:58N 36°47' W 076°18'0 0.0
2017-Oct-12 19:28N 36°47' W 076°18'0 0.0
2017-Oct-12 18:58N 36°47' W 076°18'0 0.0
2017-Oct-12 18:28N 36°47' W 076°18'0 0.0
2017-Oct-12 17:58N 36°47' W 076°18'0 0.0
2017-Oct-12 17:28N 36°47' W 076°18'0 0.0
2017-Oct-12 16:58N 36°47' W 076°18'0 0.0
2017-Oct-12 16:28N 36°47' W 076°18'0 0.0
2017-Oct-12 15:58N 36°47' W 076°18'0 0.0
2017-Oct-12 15:28N 36°47' W 076°18'0 0.0
2017-Oct-12 14:55N 36°47' W 076°18'0 0.0
2017-Oct-12 14:28N 36°47' W 076°18'0 0.2
2017-Oct-12 14:00N 36°47' W 076°18'1 2.7
2017-Oct-12 13:30N 36°48' W 076°18'3 5.9
2017-Oct-12 13:00N 36°51' W 076°18'4 7.2
2017-Oct-12 12:30N 36°54' W 076°20'12 7.0
2017-Oct-12 10:44N 36°58' W 076°06'210.3
2017-Oct-12 10:30N 36°58' W 076°03'510.2
2017-Oct-12 09:58N 36°56' W 075°56'5 8.9
2017-Oct-12 09:26N 36°53' W 075°52'  
Track history (hours):
 
Tides and Currents Weather Stations Pressure Air Temp Water Temp Dewpoint Dewpoint Depression Visibility Wind Speed Wind Dir Waves Ship Positions

Celia

Last reported at 2017-Oct-16 18:59 UTC. Time now 2017-Oct-17 13:16 UTC.
Position N 34°15' W 076°25'.

Length 101 m; draft 4.3 m.

Type: Cargo ship. MMSI: 305176000.

Date/timePositionNaut miles runAvg speedWind from/ knotsBaromVisibWave heightAir tempDewpointWater temp
2017-Oct-16 18:59N 34°15' W 076°25'4210.9
2017-Oct-16 15:09N 34°45' W 075°49'210.9
2017-Oct-16 14:56N 34°46' W 075°47'1710.5
2017-Oct-16 13:16N 34°58' W 075°32'75 8.7
2017-Oct-16 04:41N 36°13' W 075°27'1110.0
2017-Oct-16 03:34N 36°24' W 075°32'2610.0
2017-Oct-16 00:56N 36°48' W 075°46'510.6
2017-Oct-16 00:28N 36°51' W 075°51'510.5
2017-Oct-16 00:00N 36°54' W 075°55'5 9.8
2017-Oct-15 23:30N 36°57' W 076°00'5 9.7
2017-Oct-15 23:00N 36°58' W 076°06'10 9.7
2017-Oct-15 21:55N 36°59' W 076°19'410.0
2017-Oct-15 21:30N 36°55' W 076°20'4 7.9
2017-Oct-15 21:00N 36°51' W 076°19'2 4.5
2017-Oct-15 20:31N 36°49' W 076°17'2 3.6
2017-Oct-15 20:00N 36°48' W 076°18'1 1.9
2017-Oct-15 19:30N 36°47' W 076°18'0 0.0
2017-Oct-15 15:46N 36°47' W 076°18'0 0.0
2017-Oct-15 15:28N 36°47' W 076°18'0 0.0
2017-Oct-15 14:58N 36°47' W 076°18'0 0.0
2017-Oct-15 13:58N 36°47' W 076°18'0 0.0
2017-Oct-15 06:37N 36°47' W 076°18'0 0.0
2017-Oct-15 06:28N 36°47' W 076°18'0 0.0
2017-Oct-15 05:58N 36°47' W 076°18'0 0.0
2017-Oct-15 05:28N 36°47' W 076°18'0 0.0
2017-Oct-15 04:58N 36°47' W 076°18'0 0.0
2017-Oct-15 04:28N 36°47' W 076°18'0 0.0
2017-Oct-15 03:58N 36°47' W 076°18'0 0.0
2017-Oct-15 03:25N 36°47' W 076°18'0 0.0
2017-Oct-15 02:58N 36°47' W 076°18'0 0.0
2017-Oct-15 02:28N 36°47' W 076°18'0 0.0
2017-Oct-15 01:58N 36°47' W 076°18'0 0.0
2017-Oct-15 01:28N 36°47' W 076°18'0 0.0
2017-Oct-15 00:58N 36°47' W 076°18'0 0.0
2017-Oct-15 00:28N 36°47' W 076°18'0 0.0
2017-Oct-14 23:58N 36°47' W 076°18'0 0.0
2017-Oct-14 21:34N 36°47' W 076°18'0 0.0
2017-Oct-14 21:28N 36°47' W 076°18'0 0.0
2017-Oct-14 20:58N 36°47' W 076°18'0 0.0
2017-Oct-14 20:28N 36°47' W 076°18'0 0.0
2017-Oct-14 19:58N 36°47' W 076°18'0 0.0
2017-Oct-14 19:28N 36°47' W 076°18'0 0.0
2017-Oct-14 18:58N 36°47' W 076°18'0 0.0
2017-Oct-14 18:25N 36°47' W 076°18'0 0.0
2017-Oct-14 17:58N 36°47' W 076°18'0 0.0
2017-Oct-14 17:28N 36°47' W 076°18'0 0.0
2017-Oct-14 16:58N 36°47' W 076°18'0 0.0
2017-Oct-14 16:28N 36°47' W 076°18'0 0.0
2017-Oct-14 15:58N 36°47' W 076°18'0 0.0
2017-Oct-14 15:28N 36°47' W 076°18'0 0.0
2017-Oct-14 14:58N 36°47' W 076°18'0 0.0
2017-Oct-14 14:28N 36°47' W 076°18'0 0.0
2017-Oct-14 13:58N 36°47' W 076°18'0 0.0
2017-Oct-14 13:28N 36°47' W 076°18'0 0.0
2017-Oct-14 12:58N 36°47' W 076°18'0 0.0
2017-Oct-14 12:28N 36°47' W 076°18'0 0.0
2017-Oct-14 11:58N 36°47' W 076°18'0 0.0
2017-Oct-14 11:28N 36°47' W 076°18'0 0.0
2017-Oct-14 10:58N 36°47' W 076°18'0 0.0
2017-Oct-14 10:28N 36°47' W 076°18'0 0.0
2017-Oct-14 09:58N 36°47' W 076°18'0 0.0
2017-Oct-14 09:28N 36°47' W 076°18'0 0.0
2017-Oct-14 08:58N 36°47' W 076°18'0 0.0
2017-Oct-14 08:25N 36°47' W 076°18'0 0.0
2017-Oct-14 07:58N 36°47' W 076°18'0 0.0
2017-Oct-14 07:28N 36°47' W 076°18'0 0.0
2017-Oct-14 06:58N 36°47' W 076°18'0 0.0
2017-Oct-14 06:28N 36°47' W 076°18'0 0.0
2017-Oct-14 05:58N 36°47' W 076°18'0 0.0
2017-Oct-14 05:28N 36°47' W 076°18'0 0.0
2017-Oct-14 04:58N 36°47' W 076°18'0 0.0
2017-Oct-14 04:28N 36°47' W 076°18'0 0.0
2017-Oct-14 03:55N 36°47' W 076°18'0 0.0
2017-Oct-14 03:28N 36°47' W 076°18'0 0.0
2017-Oct-14 02:58N 36°47' W 076°18'0 0.0
2017-Oct-14 02:28N 36°47' W 076°18'0 0.0
2017-Oct-14 01:58N 36°47' W 076°18'0 0.0
2017-Oct-14 00:07N 36°47' W 076°18'0 0.0
2017-Oct-13 23:43N 36°47' W 076°18'0 0.0
2017-Oct-13 23:19N 36°47' W 076°18'0 0.0
2017-Oct-13 22:58N 36°47' W 076°18'0 0.0
2017-Oct-13 22:28N 36°47' W 076°18'0 0.0
2017-Oct-13 21:58N 36°47' W 076°18'0 0.0
2017-Oct-13 21:28N 36°47' W 076°18'0 0.0
2017-Oct-13 20:58N 36°47' W 076°18'0 0.0
2017-Oct-13 20:28N 36°47' W 076°18'0 0.0
2017-Oct-13 19:58N 36°47' W 076°18'0 0.0
2017-Oct-13 19:28N 36°47' W 076°18'0 0.0
2017-Oct-13 18:58N 36°47' W 076°18'0 0.0
2017-Oct-13 18:28N 36°47' W 076°18'0 0.0
2017-Oct-13 17:58N 36°47' W 076°18'0 0.0
2017-Oct-13 17:28N 36°47' W 076°18'0 0.0
2017-Oct-13 16:58N 36°47' W 076°18'0 0.0
2017-Oct-13 16:28N 36°47' W 076°18'0 0.0
2017-Oct-13 15:58N 36°47' W 076°18'0 0.0
2017-Oct-13 15:28N 36°47' W 076°18'0 0.0
2017-Oct-13 14:58N 36°47' W 076°18'0 0.0
2017-Oct-13 14:28N 36°47' W 076°18'0 0.0
2017-Oct-13 13:58N 36°47' W 076°18'0 0.0
2017-Oct-13 13:28N 36°47' W 076°18'0 0.0
2017-Oct-13 12:58N 36°47' W 076°18'0 0.0
2017-Oct-13 12:28N 36°47' W 076°18'0 0.0
2017-Oct-13 11:58N 36°47' W 076°18'0 0.0
2017-Oct-13 11:28N 36°47' W 076°18'0 0.0
2017-Oct-13 10:58N 36°47' W 076°18'0 0.0
2017-Oct-13 10:28N 36°47' W 076°18'0 0.0
2017-Oct-13 09:58N 36°47' W 076°18'0 0.0
2017-Oct-13 09:28N 36°47' W 076°18'0 0.0
2017-Oct-13 08:58N 36°47' W 076°18'0 0.0
2017-Oct-13 08:28N 36°47' W 076°18'0 0.0
2017-Oct-13 07:58N 36°47' W 076°18'0 0.0
2017-Oct-13 07:28N 36°47' W 076°18'0 0.0
2017-Oct-13 06:58N 36°47' W 076°18'0 0.0
2017-Oct-13 06:28N 36°47' W 076°18'0 0.0
2017-Oct-13 05:58N 36°47' W 076°18'0 0.0
2017-Oct-13 05:28N 36°47' W 076°18'0 0.0
2017-Oct-13 04:58N 36°47' W 076°18'0 0.0
2017-Oct-13 04:28N 36°47' W 076°18'0 0.0
2017-Oct-13 03:58N 36°47' W 076°18'0 0.0
2017-Oct-13 03:28N 36°47' W 076°18'0 0.0
2017-Oct-13 02:58N 36°47' W 076°18'0 0.0
2017-Oct-13 02:28N 36°47' W 076°18'0 0.0
2017-Oct-13 01:58N 36°47' W 076°18'0 0.0
2017-Oct-13 01:28N 36°47' W 076°18'0 0.0
2017-Oct-13 00:58N 36°47' W 076°18'0 0.0
2017-Oct-13 00:28N 36°47' W 076°18'0 0.0
2017-Oct-12 23:58N 36°47' W 076°18'0 0.0
2017-Oct-12 23:28N 36°47' W 076°18'0 0.0
2017-Oct-12 22:58N 36°47' W 076°18'0 0.0
2017-Oct-12 22:28N 36°47' W 076°18'0 0.0
2017-Oct-12 21:58N 36°47' W 076°18'0 0.0
2017-Oct-12 21:28N 36°47' W 076°18'0 0.0
2017-Oct-12 20:58N 36°47' W 076°18'0 0.0
2017-Oct-12 20:28N 36°47' W 076°18'0 0.0
2017-Oct-12 19:58N 36°47' W 076°18'0 0.0
2017-Oct-12 19:28N 36°47' W 076°18'0 0.0
2017-Oct-12 18:58N 36°47' W 076°18'0 0.0
2017-Oct-12 18:28N 36°47' W 076°18'0 0.0
2017-Oct-12 17:58N 36°47' W 076°18'0 0.0
2017-Oct-12 17:28N 36°47' W 076°18'0 0.0
2017-Oct-12 16:58N 36°47' W 076°18'0 0.0
2017-Oct-12 16:28N 36°47' W 076°18'0 0.0
2017-Oct-12 15:58N 36°47' W 076°18'0 0.0
2017-Oct-12 15:28N 36°47' W 076°18'0 0.0
2017-Oct-12 14:55N 36°47' W 076°18'0 0.0
2017-Oct-12 14:28N 36°47' W 076°18'0 0.2
2017-Oct-12 14:00N 36°47' W 076°18'1 2.7
2017-Oct-12 13:30N 36°48' W 076°18'3 5.9
2017-Oct-12 13:00N 36°51' W 076°18'4 7.2
2017-Oct-12 12:30N 36°54' W 076°20'12 7.0
2017-Oct-12 10:44N 36°58' W 076°06'210.3
2017-Oct-12 10:30N 36°58' W 076°03'510.2
2017-Oct-12 09:58N 36°56' W 075°56'5 8.9
2017-Oct-12 09:26N 36°53' W 075°52'  

Dump ship's entire track history